Time;durP1;ratioP1;P1;durP2;ratioP2;P2;SDS_P1;SDS_P2;PMS_P1;PMS_P2;Temp;Humidity;BMP_temperature;BMP_pressure;BME280_temperature;BME280_humidity;BME280_pressure;Samples;Min_cycle;Max_cycle;Signal;HPM_P1;HPM_P2
2022/07/06 00:02:25;;;;;;;13.27;11.93;;;;;;;19.91;100.00;94446.09;5052193;28;20220;-64
2022/07/06 00:04:50;;;;;;;14.07;12.27;;;;;;;19.96;100.00;94445.50;5052319;28;20193;-63
2022/07/06 00:07:16;;;;;;;12.77;11.50;;;;;;;19.99;100.00;94443.38;5034258;28;20212;-66
2022/07/06 00:09:41;;;;;;;13.30;11.15;;;;;;;20.04;100.00;94451.31;5052366;28;20197;-63
2022/07/06 00:12:07;;;;;;;12.30;11.00;;;;;;;20.15;100.00;94459.50;5033877;28;20236;-64
2022/07/06 00:14:33;;;;;;;12.02;10.73;;;;;;;20.22;100.00;94457.78;5051995;28;20193;-63
2022/07/06 00:16:58;;;;;;;12.60;11.32;;;;;;;20.18;100.00;94457.31;5051952;28;20596;-63
2022/07/06 00:19:24;;;;;;;12.60;11.25;;;;;;;20.12;100.00;94457.31;5033841;28;20689;-63
2022/07/06 00:21:49;;;;;;;13.40;11.40;;;;;;;20.13;100.00;94469.22;5051801;28;20209;-63
2022/07/06 00:24:17;;;;;;;14.27;11.85;;;;;;;20.14;100.00;94470.81;5052005;28;20213;-64
2022/07/06 00:26:43;;;;;;;12.88;11.57;;;;;;;20.19;100.00;94474.44;5018036;28;20663;-62
2022/07/06 00:29:08;;;;;;;14.00;12.30;;;;;;;20.15;100.00;94469.81;5052318;28;20251;-64
2022/07/06 00:31:34;;;;;;;15.75;12.93;;;;;;;20.00;100.00;94475.91;5051968;28;20214;-63
2022/07/06 00:33:59;;;;;;;13.98;12.57;;;;;;;20.10;100.00;94491.03;5052049;28;20220;-64
2022/07/06 00:36:25;;;;;;;18.17;12.52;;;;;;;20.24;100.00;94497.13;5051695;28;20707;-64
2022/07/06 00:38:57;;;;;;;12.55;11.35;;;;;;;19.91;100.00;94494.34;5053638;28;20293;-64
2022/07/06 00:41:22;;;;;;;14.48;12.40;;;;;;;19.73;100.00;94494.84;5058322;28;20248;-64
2022/07/06 00:43:55;;;;;;;17.70;12.52;;;;;;;19.68;100.00;94501.53;5040228;28;20220;-63
2022/07/06 00:46:25;;;;;;;14.98;12.15;;;;;;;19.50;100.00;94496.84;5058360;28;20217;-63
2022/07/06 00:48:50;;;;;;;14.30;10.93;;;;;;;19.44;100.00;94492.44;5058514;28;20721;-63
2022/07/06 00:51:16;;;;;;;15.05;11.63;;;;;;;19.51;100.00;94489.91;5058254;28;20212;-64
2022/07/06 00:53:42;;;;;;;12.27;11.00;;;;;;;19.52;100.00;94492.31;5058711;28;20193;-62
2022/07/06 00:56:09;;;;;;;12.63;11.30;;;;;;;19.55;100.00;94494.53;5040257;28;20746;-62
2022/07/06 00:58:36;;;;;;;14.13;11.15;;;;;;;19.55;100.00;94484.22;5058665;28;20193;-61
2022/07/06 01:01:01;;;;;;;14.50;11.98;;;;;;;19.50;100.00;94480.56;5058265;28;20197;-62
2022/07/06 01:03:27;;;;;;;16.35;12.45;;;;;;;19.45;100.00;94473.44;5058070;28;20262;-64
2022/07/06 01:05:53;;;;;;;17.80;11.70;;;;;;;19.54;100.00;94466.31;5058166;28;20299;-63
2022/07/06 01:08:18;;;;;;;13.02;11.63;;;;;;;19.96;100.00;94448.91;5058032;28;20205;-63
2022/07/06 01:10:44;;;;;;;13.85;12.40;;;;;;;19.86;100.00;94445.88;5058076;28;20574;-63
2022/07/06 01:13:10;;;;;;;13.48;12.07;;;;;;;19.90;100.00;94441.13;5058128;28;20205;-66
2022/07/06 01:15:35;;;;;;;14.20;11.68;;;;;;;20.05;100.00;94450.34;5057972;28;20250;-64
2022/07/06 01:18:00;;;;;;;16.27;12.43;;;;;;;19.99;100.00;94443.38;5058112;28;20303;-64
2022/07/06 01:20:26;;;;;;;14.27;11.57;;;;;;;20.04;100.00;94451.31;5058294;28;20224;-63
2022/07/06 01:22:55;;;;;;;16.48;11.63;;;;;;;20.09;100.00;94448.16;5058027;28;20213;-64
2022/07/06 01:25:21;;;;;;;13.20;11.80;;;;;;;20.09;100.00;94448.16;5058658;28;20321;-62
2022/07/06 01:27:47;;;;;;;15.38;12.20;;;;;;;20.22;100.00;94444.88;5058180;28;20702;-63
2022/07/06 01:30:15;;;;;;;14.73;13.15;;;;;;;20.13;100.00;94453.72;5058743;28;20193;-66
2022/07/06 01:32:41;;;;;;;14.23;12.40;;;;;;;20.26;100.00;94448.66;5058366;28;20206;-68
2022/07/06 01:35:10;;;;;;;15.70;13.40;;;;;;;20.22;100.00;94447.47;5058018;28;20204;-66
2022/07/06 01:37:36;;;;;;;15.40;13.80;;;;;;;20.19;100.00;94438.31;5058291;28;20213;-66
2022/07/06 01:40:04;;;;;;;24.13;20.30;;;;;;;20.13;100.00;94436.47;5057803;28;20201;-65
2022/07/06 01:42:30;;;;;;;19.13;15.95;;;;;;;20.10;100.00;94450.53;5058242;28;20206;-63
2022/07/06 01:44:56;;;;;;;22.80;16.60;;;;;;;19.93;100.00;94448.50;5058097;28;20197;-64
2022/07/06 01:47:22;;;;;;;22.38;18.08;;;;;;;19.86;100.00;94442.50;5039520;28;20224;-64
2022/07/06 01:49:48;;;;;;;24.40;18.95;;;;;;;19.78;100.00;94448.59;5057481;28;20197;-63
2022/07/06 01:52:14;;;;;;;24.83;22.05;;;;;;;19.72;100.00;94446.78;5054064;28;20240;-65
2022/07/06 01:54:39;;;;;;;24.05;21.40;;;;;;;19.69;100.00;94447.19;5037358;28;20232;-63
2022/07/06 01:57:05;;;;;;;26.08;21.85;;;;;;;19.86;100.00;94455.38;5054970;28;20205;-63
2022/07/06 01:59:30;;;;;;;27.27;24.02;;;;;;;19.62;100.00;94451.50;5054752;28;20586;-63
2022/07/06 02:01:56;;;;;;;30.83;24.15;;;;;;;19.42;100.00;94466.06;5054473;28;20675;-63
2022/07/06 02:04:22;;;;;;;29.80;22.30;;;;;;;19.41;100.00;94461.91;5054927;28;20217;-63
2022/07/06 02:06:47;;;;;;;28.23;22.30;;;;;;;19.17;100.00;94470.78;5054658;28;20249;-63
2022/07/06 02:09:13;;;;;;;26.15;19.27;;;;;;;19.09;100.00;94470.13;5054535;28;20201;-63
2022/07/06 02:11:38;;;;;;;23.35;17.33;;;;;;;19.18;100.00;94463.84;5054325;28;20205;-64
2022/07/06 02:14:03;;;;;;;16.70;14.90;;;;;;;19.19;100.00;94468.81;5054555;28;20213;-63
2022/07/06 02:16:29;;;;;;;16.23;13.85;;;;;;;19.19;100.00;94455.13;5054465;28;20216;-63
2022/07/06 02:18:54;;;;;;;23.70;16.27;;;;;;;19.24;100.00;94460.53;5036174;28;20212;-63
2022/07/06 02:21:20;;;;;;;16.02;13.27;;;;;;;19.24;100.00;94457.97;5054488;28;20205;-62
2022/07/06 02:23:45;;;;;;;14.23;11.98;;;;;;;19.27;100.00;94462.72;5054461;28;20244;-61
2022/07/06 02:26:11;;;;;;;16.55;13.88;;;;;;;19.44;100.00;94466.66;5054839;28;20280;-65
2022/07/06 02:28:36;;;;;;;15.18;12.73;;;;;;;19.53;100.00;94465.53;5036482;28;20567;-64
2022/07/06 02:31:02;;;;;;;15.90;13.25;;;;;;;19.68;100.00;94462.84;5054090;28;20201;-63
2022/07/06 02:33:27;;;;;;;13.95;11.90;;;;;;;19.97;100.00;94462.59;5054082;28;20178;-63
2022/07/06 02:35:53;;;;;;;13.98;11.18;;;;;;;19.60;100.00;94456.03;5053694;28;20259;-62
2022/07/06 02:38:18;;;;;;;13.23;11.02;;;;;;;19.43;100.00;94451.38;5053977;28;20197;-63
2022/07/06 02:40:44;;;;;;;13.10;11.73;;;;;;;19.45;100.00;94457.16;5054501;28;20212;-63
2022/07/06 02:43:09;;;;;;;11.73;10.07;;;;;;;19.48;100.00;94465.28;5054061;28;20579;-64
2022/07/06 02:45:35;;;;;;;12.68;10.98;;;;;;;19.79;100.00;94465.69;5053826;28;20197;-64
2022/07/06 02:48:01;;;;;;;13.55;10.27;;;;;;;19.82;100.00;94467.88;5035968;28;20296;-62
2022/07/06 02:50:27;;;;;;;11.55;10.35;;;;;;;19.82;100.00;94462.72;5053965;28;20659;-64
2022/07/06 02:52:52;;;;;;;13.07;10.95;;;;;;;19.76;100.00;94457.53;5035489;28;20213;-64
2022/07/06 02:55:18;;;;;;;13.18;10.45;;;;;;;19.75;100.00;94459.31;5053792;28;20567;-64
2022/07/06 02:57:43;;;;;;;11.45;10.27;;;;;;;19.70;100.00;94463.44;5053780;28;20290;-64
2022/07/06 03:00:10;;;;;;;13.63;12.15;;;;;;;19.55;100.00;94455.84;5054136;28;20185;-64
2022/07/06 03:02:36;;;;;;;17.20;11.13;;;;;;;19.66;100.00;94457.06;5053121;28;20213;-64
2022/07/06 03:05:02;;;;;;;13.98;12.57;;;;;;;19.67;100.00;94451.75;5035570;28;20198;-66
2022/07/06 03:07:27;;;;;;;16.05;12.82;;;;;;;19.59;100.00;94457.06;5052909;28;20201;-66
2022/07/06 03:09:53;;;;;;;13.38;11.95;;;;;;;19.55;100.00;94449.88;5053313;28;20204;-65
2022/07/06 03:12:19;;;;;;;13.02;11.63;;;;;;;19.67;100.00;94450.94;5035254;28;20665;-64
2022/07/06 03:14:44;;;;;;;15.02;12.63;;;;;;;19.72;100.00;94449.38;5053403;28;20205;-66
2022/07/06 03:17:09;;;;;;;14.60;13.10;;;;;;;19.74;100.00;94456.91;5035136;28;20296;-64
2022/07/06 03:19:35;;;;;;;14.30;12.85;;;;;;;19.53;100.00;94457.00;5053531;28;20294;-65
2022/07/06 03:22:01;;;;;;;13.15;11.82;;;;;;;19.68;100.00;94458.47;5053090;28;20288;-64
2022/07/06 03:24:26;;;;;;;16.90;12.43;;;;;;;19.76;100.00;94463.47;5053247;28;20217;-65
2022/07/06 03:26:52;;;;;;;15.23;12.45;;;;;;;19.40;100.00;94468.03;5053359;28;20748;-62
2022/07/06 03:29:17;;;;;;;12.90;11.18;;;;;;;19.60;100.00;94473.31;5053322;28;20206;-62
2022/07/06 03:31:43;;;;;;;14.82;11.82;;;;;;;19.64;100.00;94474.50;5052674;28;20209;-62
2022/07/06 03:34:08;;;;;;;14.60;11.35;;;;;;;19.72;100.00;94482.91;5052458;28;20225;-62
2022/07/06 03:36:34;;;;;;;14.45;11.55;;;;;;;19.75;100.00;94481.75;5052852;28;20300;-62
2022/07/06 03:39:00;;;;;;;12.70;11.40;;;;;;;19.65;100.00;94482.09;5052735;28;20276;-62
2022/07/06 03:41:25;;;;;;;10.77;9.68;;;;;;;19.85;100.00;94483.00;5052542;28;20720;-62
2022/07/06 03:43:51;;;;;;;12.95;11.55;;;;;;;20.06;100.00;94493.22;5052633;28;20224;-62
2022/07/06 03:46:16;;;;;;;11.35;9.63;;;;;;;20.07;100.00;94487.09;5052431;28;20259;-62
2022/07/06 03:48:41;;;;;;;13.95;10.50;;;;;;;20.23;100.00;94490.34;5052761;28;20205;-65
2022/07/06 03:51:07;;;;;;;11.80;9.93;;;;;;;20.52;100.00;94487.47;5034236;28;20209;-64
2022/07/06 03:53:33;;;;;;;14.25;9.35;;;;;;;20.89;100.00;94486.97;5052513;28;20205;-63
2022/07/06 03:58:42;;;;;;;10.95;8.98;;;;;;;21.51;100.00;94496.97;5052709;28;20200;-63
2022/07/06 04:01:08;;;;;;;15.48;12.32;;;;;;;21.75;100.00;94497.13;5052160;28;20565;-64
2022/07/06 04:03:33;;;;;;;37.15;19.33;;;;;;;22.04;100.00;94490.72;5053216;28;20213;-62
2022/07/06 04:05:59;;;;;;;28.95;17.90;;;;;;;22.31;100.00;94488.84;5034303;28;20216;-64
2022/07/06 04:08:24;;;;;;;21.80;14.27;;;;;;;22.66;100.00;94510.06;5052055;28;20221;-65
2022/07/06 04:10:50;;;;;;;18.30;12.55;;;;;;;22.71;100.00;94516.22;5051974;28;20712;-61
2022/07/06 04:13:16;;;;;;;25.50;15.70;;;;;;;22.69;100.00;94502.66;5051437;28;20228;-61
2022/07/06 04:15:41;;;;;;;14.13;11.00;;;;;;;22.74;100.00;94520.19;5051750;28;20194;-62
2022/07/06 04:18:06;;;;;;;17.80;11.77;;;;;;;22.75;100.00;94529.53;5051966;28;20212;-61
2022/07/06 04:20:32;;;;;;;11.43;8.50;;;;;;;22.63;100.00;94578.66;5033901;28;20682;-61
2022/07/06 04:22:58;;;;;;;9.82;8.75;;;;;;;22.65;100.00;94537.78;5033494;28;20217;-62
2022/07/06 04:25:24;;;;;;;10.73;8.98;;;;;;;22.54;100.00;94562.50;5051963;28;20197;-62
2022/07/06 04:27:49;;;;;;;10.80;8.40;;;;;;;22.38;100.00;94526.69;5051781;28;20209;-63
2022/07/06 04:30:15;;;;;;;8.82;7.93;;;;;;;22.12;100.00;94544.88;5051641;28;20634;-61
2022/07/06 04:32:41;;;;;;;9.95;7.85;;;;;;;21.65;100.00;94520.03;5051745;28;20267;-63
2022/07/06 04:35:07;;;;;;;7.70;6.95;;;;;;;21.45;100.00;94534.00;5051549;28;20193;-64
2022/07/06 04:37:32;;;;;;;11.27;7.25;;;;;;;21.15;100.00;94510.28;5051608;28;20205;-64
2022/07/06 04:39:58;;;;;;;9.95;7.13;;;;;;;21.24;100.00;94527.22;5033583;28;20264;-62
2022/07/06 04:42:24;;;;;;;10.80;7.95;;;;;;;21.11;100.00;94506.50;5051116;28;20221;-62
2022/07/06 04:44:51;;;;;;;8.98;7.28;;;;;;;21.29;100.00;94535.16;5033278;28;20221;-62
2022/07/06 04:47:17;;;;;;;13.57;7.78;;;;;;;20.80;100.00;94511.41;5051513;28;20251;-61
2022/07/06 04:49:42;;;;;;;7.00;6.30;;;;;;;20.14;100.00;94505.16;5051685;28;20216;-62
2022/07/06 04:52:07;;;;;;;9.70;7.47;;;;;;;19.81;100.00;94517.91;5051393;28;20209;-61
2022/07/06 04:54:33;;;;;;;14.18;7.28;;;;;;;19.36;100.00;94518.38;5051791;28;20197;-66
2022/07/06 04:56:59;;;;;;;16.13;8.82;;;;;;;19.41;100.00;94536.66;5051443;28;20206;-65
2022/07/06 04:59:24;;;;;;;13.20;8.70;;;;;;;19.46;100.00;94529.16;5052008;28;20604;-65
2022/07/06 05:01:49;;;;;;;11.45;9.02;;;;;;;19.57;100.00;94540.75;5033245;28;20213;-64
2022/07/06 05:04:18;;;;;;;12.40;8.75;;;;;;;19.57;100.00;94541.56;5051268;28;20198;-63
2022/07/06 05:06:43;;;;;;;14.85;9.02;;;;;;;19.54;100.00;94551.41;5051590;28;20213;-63
2022/07/06 05:09:09;;;;;;;11.50;8.57;;;;;;;19.58;100.00;94550.88;5051205;28;20572;-63
2022/07/06 05:11:35;;;;;;;11.35;8.85;;;;;;;19.68;100.00;94553.91;5051276;28;20705;-63
2022/07/06 05:14:01;;;;;;;15.52;9.32;;;;;;;19.69;100.00;94558.09;5051727;28;20197;-65
2022/07/06 05:16:26;;;;;;;10.82;9.60;;;;;;;19.52;100.00;94564.50;5050955;28;20645;-65
2022/07/06 05:18:52;;;;;;;17.13;11.50;;;;;;;19.20;100.00;94546.94;5033229;28;20293;-66
2022/07/06 05:21:17;;;;;;;18.90;12.05;;;;;;;19.08;100.00;94549.22;5051168;28;20358;-66
2022/07/06 05:23:43;;;;;;;12.45;11.15;;;;;;;19.31;100.00;94567.06;5050825;28;20663;-66
2022/07/06 05:26:08;;;;;;;13.07;10.48;;;;;;;19.29;100.00;94556.13;5053365;28;20284;-65
2022/07/06 05:28:34;;;;;;;14.05;12.05;;;;;;;19.25;100.00;94562.66;5055134;28;20656;-65
2022/07/06 05:31:00;;;;;;;12.80;10.98;;;;;;;19.37;100.00;94574.13;5052780;28;20208;-65
2022/07/06 05:33:27;;;;;;;15.57;11.38;;;;;;;19.42;100.00;94573.53;5061266;22;20237;-65
2022/07/06 05:35:53;;;;;;;14.20;11.32;;;;;;;19.48;100.00;94577.94;5052542;28;20201;-64
2022/07/06 05:38:19;;;;;;;14.55;11.80;;;;;;;19.52;100.00;94574.81;5032766;28;20214;-65
2022/07/06 05:40:45;;;;;;;15.95;11.00;;;;;;;19.66;100.00;94566.22;5030820;28;20775;-65
2022/07/06 05:43:10;;;;;;;18.17;10.60;;;;;;;19.88;100.00;94580.66;5033632;28;20218;-62
2022/07/06 05:45:36;;;;;;;13.38;10.85;;;;;;;19.95;100.00;94586.69;5075121;22;20231;-64
2022/07/06 05:50:45;;;;;;;13.57;10.32;;;;;;;20.17;100.00;94612.41;5054528;28;20213;-64
2022/07/06 05:53:11;;;;;;;12.40;9.90;;;;;;;20.40;100.00;94602.66;5054359;28;20209;-64
2022/07/06 05:55:36;;;;;;;12.70;9.77;;;;;;;20.48;100.00;94598.13;5054286;28;20205;-65
2022/07/06 05:58:02;;;;;;;11.85;9.52;;;;;;;20.62;100.00;94599.00;5054400;28;20217;-66
2022/07/06 06:00:29;;;;;;;10.18;9.18;;;;;;;20.70;100.00;94620.31;5054767;28;20193;-63
2022/07/06 06:02:55;;;;;;;12.05;9.52;;;;;;;20.36;100.00;94606.63;5036515;28;20217;-67
2022/07/06 06:05:21;;;;;;;13.15;9.90;;;;;;;20.44;100.00;94590.97;5055153;28;20204;-64
2022/07/06 06:07:48;;;;;;;10.85;9.65;;;;;;;20.50;100.00;94596.13;5054463;28;20217;-63
2022/07/06 06:10:14;;;;;;;12.57;10.20;;;;;;;20.23;100.00;94597.00;5054178;28;20209;-62
2022/07/06 06:12:41;;;;;;;12.40;10.35;;;;;;;20.19;100.00;94588.03;5035944;28;20241;-64
2022/07/06 06:15:08;;;;;;;14.18;10.75;;;;;;;20.05;100.00;94579.41;5053930;28;20564;-65
2022/07/06 06:17:36;;;;;;;14.05;10.57;;;;;;;19.95;100.00;94581.50;5054299;28;20213;-66
2022/07/06 06:20:03;;;;;;;15.70;11.57;;;;;;;19.89;100.00;94574.53;5036126;28;20235;-65
2022/07/06 06:22:28;;;;;;;13.43;10.30;;;;;;;19.78;100.00;94580.19;5060658;22;20225;-64
2022/07/06 06:24:54;;;;;;;12.38;11.02;;;;;;;19.70;100.00;94582.09;5053985;28;20213;-63
2022/07/06 06:27:19;;;;;;;17.48;11.30;;;;;;;19.68;100.00;94574.56;5054005;28;20205;-65
2022/07/06 06:29:45;;;;;;;12.77;10.82;;;;;;;19.78;100.00;94575.03;5054082;28;20213;-65
2022/07/06 06:32:12;;;;;;;15.48;11.48;;;;;;;19.77;100.00;94582.97;5054105;28;20664;-65
2022/07/06 06:34:38;;;;;;;14.55;10.73;;;;;;;19.73;100.00;94592.88;5054093;28;20683;-65
2022/07/06 06:37:03;;;;;;;17.17;11.35;;;;;;;19.63;100.00;94586.44;5053255;28;20202;-65
2022/07/06 06:39:29;;;;;;;16.77;11.43;;;;;;;19.72;100.00;94573.19;5053997;28;20212;-65
2022/07/06 06:41:55;;;;;;;14.10;11.05;;;;;;;19.82;100.00;94578.81;5053847;28;20667;-65
2022/07/06 06:44:22;;;;;;;13.70;11.13;;;;;;;19.93;100.00;94572.34;5053744;28;20557;-66
2022/07/06 06:46:49;;;;;;;14.82;12.15;;;;;;;20.02;100.00;94576.38;5053626;28;20217;-64
2022/07/06 06:49:14;;;;;;;15.50;11.27;;;;;;;20.01;100.00;94577.38;5053335;28;20221;-64
2022/07/06 06:51:40;;;;;;;15.80;11.43;;;;;;;19.91;100.00;94585.47;5053353;28;20611;-64
2022/07/06 06:54:05;;;;;;;14.77;12.68;;;;;;;20.02;100.00;94584.91;5035768;28;20240;-66
2022/07/06 06:56:30;;;;;;;12.50;11.20;;;;;;;19.90;100.00;94573.53;5053569;28;20288;-66
2022/07/06 06:58:56;;;;;;;14.82;12.05;;;;;;;19.99;100.00;94582.72;5053074;28;20209;-65
2022/07/06 07:01:21;;;;;;;14.05;11.75;;;;;;;20.07;100.00;94569.69;5053572;28;20210;-62
2022/07/06 07:03:47;;;;;;;17.02;11.43;;;;;;;20.09;100.00;94593.53;5035473;28;20217;-61
2022/07/06 07:06:13;;;;;;;15.05;12.02;;;;;;;20.09;100.00;94580.59;5053162;28;20209;-65
2022/07/06 07:08:38;;;;;;;14.48;11.80;;;;;;;20.19;100.00;94587.19;5053479;28;20209;-66
2022/07/06 07:11:04;;;;;;;13.48;11.48;;;;;;;20.35;100.00;94597.25;5052953;28;20281;-65
2022/07/06 07:13:29;;;;;;;15.88;12.38;;;;;;;20.48;100.00;94595.53;5052944;28;20666;-64
2022/07/06 07:15:54;;;;;;;14.23;12.07;;;;;;;20.54;100.00;94588.81;5052661;28;20201;-65
2022/07/06 07:18:20;;;;;;;14.25;12.20;;;;;;;20.62;100.00;94594.63;5053056;28;20197;-64
2022/07/06 07:20:45;;;;;;;14.77;12.10;;;;;;;20.45;100.00;94590.75;5052959;28;20201;-65
2022/07/06 07:23:11;;;;;;;13.60;11.82;;;;;;;20.35;100.00;94605.00;5052734;28;20198;-67
2022/07/06 07:25:38;;;;;;;15.18;11.70;;;;;;;20.31;100.00;94611.53;5052833;28;20193;-65
2022/07/06 07:28:04;;;;;;;14.88;10.93;;;;;;;20.29;100.00;94595.44;5034661;28;20231;-64
2022/07/06 07:30:29;;;;;;;14.18;11.38;;;;;;;20.28;100.00;94593.84;5052811;28;20196;-66
2022/07/06 07:32:55;;;;;;;13.75;10.95;;;;;;;20.41;100.00;94586.97;5052857;28;20276;-65
2022/07/06 07:35:21;;;;;;;15.05;12.52;;;;;;;20.39;100.00;94590.72;5053080;28;20194;-66
2022/07/06 07:37:47;;;;;;;16.27;12.48;;;;;;;20.34;100.00;94582.75;5052724;28;20213;-64
2022/07/06 07:40:12;;;;;;;12.73;11.43;;;;;;;20.48;100.00;94582.63;5034669;28;20200;-64
2022/07/06 07:42:40;;;;;;;16.83;12.98;;;;;;;20.57;100.00;94581.47;5034526;28;20263;-66
2022/07/06 07:45:07;;;;;;;14.68;11.63;;;;;;;20.62;100.00;94625.63;5052661;28;20655;-67
2022/07/06 07:47:32;;;;;;;13.90;12.40;;;;;;;20.58;100.00;94608.13;5034311;28;20300;-64
2022/07/06 07:49:58;;;;;;;14.75;12.55;;;;;;;20.68;100.00;94598.22;5051542;28;20670;-66
2022/07/06 07:52:23;;;;;;;14.75;12.50;;;;;;;20.83;100.00;94604.84;5017838;28;20217;-65
2022/07/06 07:54:49;;;;;;;13.88;12.32;;;;;;;20.84;100.00;94603.06;5052159;28;20193;-65
2022/07/06 07:57:14;;;;;;;18.90;12.75;;;;;;;20.77;100.00;94582.34;5051914;28;20216;-63
2022/07/06 07:59:39;;;;;;;14.57;12.75;;;;;;;20.81;100.00;94593.09;5052093;28;20186;-65
2022/07/06 08:02:06;;;;;;;14.90;12.77;;;;;;;20.71;100.00;94600.41;5034104;28;20209;-64
2022/07/06 08:04:31;;;;;;;13.88;12.25;;;;;;;20.65;100.00;94591.66;5051923;28;20210;-64
2022/07/06 08:06:57;;;;;;;18.30;13.27;;;;;;;20.68;100.00;94593.06;5059087;22;20663;-65
2022/07/06 08:09:22;;;;;;;18.65;13.50;;;;;;;20.77;100.00;94608.19;5051885;28;20181;-64
2022/07/06 08:11:48;;;;;;;16.35;13.43;;;;;;;20.96;100.00;94595.53;5051817;28;20209;-64
2022/07/06 08:14:14;;;;;;;16.42;12.70;;;;;;;21.17;100.00;94585.09;5051778;28;20589;-65
2022/07/06 08:16:40;;;;;;;13.07;11.38;;;;;;;21.20;100.00;94655.31;5051797;28;20289;-65
2022/07/06 08:19:05;;;;;;;18.05;11.40;;;;;;;21.13;100.00;94636.38;5051767;28;20238;-62
2022/07/06 08:21:30;;;;;;;13.85;12.35;;;;;;;21.15;100.00;94618.09;5051975;28;20198;-64
2022/07/06 08:23:56;;;;;;;12.77;11.48;;;;;;;21.22;100.00;94629.25;5033784;28;20213;-64
2022/07/06 08:26:22;;;;;;;13.38;11.98;;;;;;;21.33;100.00;94610.59;5052411;28;20338;-63
2022/07/06 08:28:48;;;;;;;16.25;12.35;;;;;;;21.48;100.00;94609.41;5052190;28;20208;-64
2022/07/06 08:31:13;;;;;;;13.50;10.75;;;;;;;21.41;100.00;94659.56;5052198;28;20586;-61
2022/07/06 08:33:39;;;;;;;15.30;11.52;;;;;;;21.48;100.00;94644.81;5033699;28;20210;-63
2022/07/06 08:36:04;;;;;;;14.27;12.10;;;;;;;21.54;100.00;94639.66;5051652;28;20243;-61
2022/07/06 08:38:30;;;;;;;15.27;12.25;;;;;;;21.64;100.00;94619.38;5033740;28;20205;-61
2022/07/06 08:40:56;;;;;;;13.80;11.10;;;;;;;21.84;100.00;94644.50;5033580;28;20648;-62
2022/07/06 08:43:22;;;;;;;13.23;11.10;;;;;;;21.86;100.00;94652.84;5051614;28;20205;-65
2022/07/06 08:45:53;;;;;;;11.95;10.10;;;;;;;21.87;100.00;94662.22;5051670;28;20209;-66
2022/07/06 08:48:22;;;;;;;11.77;10.52;;;;;;;22.05;100.00;94649.47;5051420;28;20194;-62
2022/07/06 08:50:48;;;;;;;11.15;10.00;;;;;;;22.06;100.00;94658.88;5033594;28;20556;-59
2022/07/06 08:53:14;;;;;;;11.80;10.57;;;;;;;22.05;100.00;94639.94;5051748;28;20224;-61
2022/07/06 08:55:40;;;;;;;10.68;9.68;;;;;;;22.26;100.00;94633.75;5051766;28;20667;-62
2022/07/06 08:58:07;;;;;;;11.77;10.55;;;;;;;22.62;100.00;94672.16;5033507;28;20217;-61
2022/07/06 09:00:33;;;;;;;11.48;10.32;;;;;;;23.11;100.00;94636.88;5052900;28;20192;-62
2022/07/06 09:02:59;;;;;;;12.70;10.73;;;;;;;23.19;100.00;94660.00;5055716;28;20204;-62
2022/07/06 09:05:25;;;;;;;12.68;11.32;;;;;;;23.16;100.00;94685.56;5055665;28;20212;-63
2022/07/06 09:07:58;;;;;;;12.80;10.60;;;;;;;23.09;100.00;94708.94;5063392;22;20220;-64
2022/07/06 09:10:23;;;;;;;14.82;11.80;;;;;;;23.17;100.00;94690.53;5034638;28;20221;-64
2022/07/06 09:12:48;;;;;;;13.40;10.82;;;;;;;23.56;100.00;94707.75;5035217;28;20218;-63
2022/07/06 09:15:15;;;;;;;13.35;10.93;;;;;;;23.50;100.00;94703.41;5035523;28;20201;-60
2022/07/06 09:17:42;;;;;;;14.88;10.60;;;;;;;23.53;100.00;94694.41;5017326;28;20209;-63
2022/07/06 09:20:09;;;;;;;14.65;11.52;;;;;;;23.29;100.00;94664.75;5035181;28;20228;-62
2022/07/06 09:22:35;;;;;;;13.27;11.82;;;;;;;23.17;100.00;94641.25;5054931;22;20217;-61
2022/07/06 09:25:05;;;;;;;12.15;10.88;;;;;;;22.98;100.00;94638.75;5055186;28;20671;-62
2022/07/06 09:27:31;;;;;;;11.82;10.38;;;;;;;22.89;100.00;94612.25;5055094;28;20224;-62
2022/07/06 09:30:00;;;;;;;15.63;11.93;;;;;;;23.02;100.00;94626.97;5055338;28;20193;-61
2022/07/06 09:32:26;;;;;;;15.25;11.55;;;;;;;23.38;100.00;94647.16;5055124;28;20218;-61
2022/07/06 09:34:51;;;;;;;17.95;13.27;;;;;;;23.48;100.00;94645.72;5055242;28;20204;-63
2022/07/06 09:37:17;;;;;;;14.50;11.05;;;;;;;23.69;100.00;94655.78;5055023;28;20215;-61
2022/07/06 09:39:44;;;;;;;12.75;11.43;;;;;;;23.43;100.00;94665.50;5055037;28;20505;-62
2022/07/06 09:42:10;;;;;;;10.95;9.82;;;;;;;23.54;100.00;94698.59;5036782;28;20217;-63
2022/07/06 09:44:41;;;;;;;13.25;11.95;;;;;;;23.61;100.00;94670.81;5054469;28;20209;-63
2022/07/06 09:47:09;;;;;;;12.40;11.07;;;;;;;23.40;100.00;94642.56;5036626;28;20228;-61
2022/07/06 09:49:35;;;;;;;11.85;10.63;;;;;;;23.46;100.00;94652.91;5054894;28;20323;-64
2022/07/06 09:52:03;;;;;;;12.27;11.00;;;;;;;23.33;100.00;94640.03;5054736;28;20224;-60
2022/07/06 09:54:29;;;;;;;14.20;10.90;;;;;;;23.40;100.00;94617.41;5036432;28;20209;-63
2022/07/06 09:56:56;;;;;;;15.07;12.07;;;;;;;23.65;100.00;94584.50;5054748;28;20216;-59
2022/07/06 09:59:27;;;;;;;13.27;11.98;;;;;;;23.49;100.00;94621.38;5054779;28;20201;-61
2022/07/06 10:01:56;;;;;;;16.73;12.20;;;;;;;23.64;100.00;94655.59;5054695;28;20213;-61
2022/07/06 10:04:23;;;;;;;13.65;12.30;;;;;;;23.55;100.00;94666.44;5054290;28;20556;-61
2022/07/06 10:06:49;;;;;;;16.15;12.23;;;;;;;23.49;100.00;94667.28;5054452;28;20223;-62
2022/07/06 10:09:15;;;;;;;12.98;11.30;;;;;;;23.40;100.00;94650.34;5036225;28;20292;-63
2022/07/06 10:11:45;;;;;;;14.15;12.55;;;;;;;23.38;100.00;94631.59;5035089;28;20238;-64
2022/07/06 10:14:14;;;;;;;14.65;12.85;;;;;;;23.69;100.00;94635.00;5054369;28;20248;-63
2022/07/06 10:16:40;;;;;;;16.63;13.75;;;;;;;24.08;100.00;94642.50;5054122;28;20213;-64
2022/07/06 10:19:09;;;;;;;13.82;11.60;;;;;;;24.20;100.00;94724.97;5054340;28;20212;-61
2022/07/06 10:21:37;;;;;;;13.75;12.35;;;;;;;24.05;100.00;94691.50;5053828;28;20286;-62
2022/07/06 10:24:04;;;;;;;13.05;11.75;;;;;;;23.83;100.00;94680.66;5054209;28;20224;-61
2022/07/06 10:26:31;;;;;;;14.63;12.93;;;;;;;24.08;100.00;94691.06;5054065;28;20216;-61
2022/07/06 10:28:59;;;;;;;12.90;11.68;;;;;;;24.28;100.00;94689.09;5053612;28;20200;-63
2022/07/06 10:31:26;;;;;;;13.07;11.63;;;;;;;23.92;100.00;94689.75;5053740;28;20250;-62
2022/07/06 10:33:53;;;;;;;13.75;12.40;;;;;;;24.08;100.00;94671.09;5053607;28;20201;-64
2022/07/06 10:36:18;;;;;;;17.02;12.82;;;;;;;24.14;100.00;94698.81;5053547;28;20205;-63
2022/07/06 10:38:50;;;;;;;14.02;12.55;;;;;;;24.66;100.00;94686.38;5053727;28;20255;-64
2022/07/06 10:41:16;;;;;;;19.90;14.13;;;;;;;24.79;99.06;94718.28;5053836;28;20224;-64
2022/07/06 10:43:46;;;;;;;18.65;13.30;;;;;;;24.84;100.00;94708.03;5053790;28;20217;-63
2022/07/06 10:46:14;;;;;;;12.77;11.57;;;;;;;24.58;97.99;94723.88;5053398;28;20737;-64
2022/07/06 10:48:41;;;;;;;14.38;12.68;;;;;;;24.91;97.36;94728.75;5053808;28;20355;-63
2022/07/06 10:51:08;;;;;;;13.55;12.15;;;;;;;25.11;98.15;94718.16;5035430;28;20216;-63
2022/07/06 10:53:36;;;;;;;14.05;12.55;;;;;;;25.07;97.39;94723.00;5060734;23;20249;-60
2022/07/06 10:56:06;;;;;;;18.33;12.95;;;;;;;24.80;98.30;94703.47;5073173;28;20224;-61
2022/07/06 10:58:36;;;;;;;13.68;12.30;;;;;;;24.90;98.13;94696.78;5073181;28;20719;-62
2022/07/06 11:01:01;;;;;;;13.82;11.73;;;;;;;25.05;95.59;94745.06;5073568;28;20234;-61
2022/07/06 11:03:38;;;;;;;16.75;12.50;;;;;;;24.92;95.25;94736.38;5073107;28;20208;-61
2022/07/06 11:06:20;;;;;;;13.05;11.85;;;;;;;25.24;95.06;94733.63;5073126;28;20204;-62
2022/07/06 11:09:00;;;;;;;13.23;11.85;;;;;;;25.53;95.15;94743.34;5073230;28;20208;-62
2022/07/06 11:11:31;;;;;;;12.57;11.20;;;;;;;24.66;95.51;94715.78;5073003;28;20208;-61
2022/07/06 11:14:06;;;;;;;14.00;12.70;;;;;;;24.82;95.05;94724.88;5073410;28;20193;-62